createdAt,value
2018-08-12T00:00:39.558Z,13.00
2018-08-12T00:03:11.528Z,17.80
2018-08-12T00:05:43.188Z,15.80
2018-08-12T00:08:14.954Z,18.20
2018-08-12T00:10:46.574Z,18.20
2018-08-12T00:13:18.567Z,18.40
2018-08-12T00:15:50.599Z,14.60
2018-08-12T00:18:22.779Z,17.40
2018-08-12T00:20:54.402Z,19.60
2018-08-12T00:23:26.214Z,19.00
2018-08-12T00:25:58.186Z,18.60
2018-08-12T00:28:30.425Z,18.60
2018-08-12T00:31:03.100Z,18.60
2018-08-12T00:33:34.998Z,18.80
2018-08-12T00:36:07.347Z,16.80
2018-08-12T00:38:39.497Z,17.80
2018-08-12T00:41:11.544Z,14.80
2018-08-12T00:43:43.199Z,19.00
2018-08-12T00:46:15.084Z,18.00
2018-08-12T00:48:47.293Z,14.60
2018-08-12T00:51:19.445Z,16.40
2018-08-12T00:53:51.952Z,17.60
2018-08-12T00:56:23.970Z,18.20
2018-08-12T00:58:56.464Z,16.20
2018-08-12T01:01:28.727Z,18.40
2018-08-12T01:04:00.923Z,18.20
2018-08-12T01:06:32.824Z,18.20
2018-08-12T01:09:05.565Z,16.40
2018-08-12T01:11:37.761Z,18.80
2018-08-12T01:14:10.019Z,16.40
2018-08-12T01:16:42.710Z,19.40
2018-08-12T01:19:15.959Z,19.80
2018-08-12T01:21:47.968Z,17.60
2018-08-12T01:24:19.696Z,20.00
2018-08-12T01:26:51.680Z,20.60
2018-08-12T01:29:23.584Z,19.80
2018-08-12T01:31:55.498Z,19.80
2018-08-12T01:34:27.378Z,20.40
2018-08-12T01:36:59.095Z,19.40
2018-08-12T01:39:31.172Z,21.60
2018-08-12T01:42:03.030Z,20.60
2018-08-12T01:44:34.828Z,20.60
2018-08-12T01:47:06.944Z,20.60
2018-08-12T01:49:39.027Z,21.40
2018-08-12T01:52:11.145Z,21.20
2018-08-12T01:54:43.110Z,22.80
2018-08-12T01:57:15.069Z,23.00
2018-08-12T01:59:47.097Z,23.60
2018-08-12T02:02:18.693Z,26.60
2018-08-12T02:04:50.743Z,25.40
2018-08-12T02:07:22.447Z,25.00
2018-08-12T02:09:54.515Z,26.00
2018-08-12T02:12:26.368Z,24.80
2018-08-12T02:14:57.993Z,24.00
2018-08-12T02:17:29.876Z,26.60
2018-08-12T02:20:02.577Z,24.60
2018-08-12T02:22:34.439Z,25.20
2018-08-12T02:25:06.697Z,23.60
2018-08-12T02:27:38.656Z,23.40
2018-08-12T02:30:12.564Z,22.80
2018-08-12T02:32:44.900Z,23.80
2018-08-12T02:35:17.063Z,23.20
2018-08-12T02:37:48.747Z,22.80
2018-08-12T02:40:21.046Z,21.60
2018-08-12T02:42:52.725Z,23.60
2018-08-12T02:45:24.617Z,24.00
2018-08-12T02:47:56.810Z,24.80
2018-08-12T02:50:29.123Z,23.40
2018-08-12T02:53:00.772Z,24.40
2018-08-12T02:55:32.667Z,23.80
2018-08-12T02:58:04.811Z,23.20
2018-08-12T03:00:36.821Z,22.80
2018-08-12T03:03:08.911Z,24.00
2018-08-12T03:05:40.847Z,25.00
2018-08-12T03:08:12.556Z,23.40
2018-08-12T03:10:44.502Z,22.20
2018-08-12T03:13:16.260Z,23.60
2018-08-12T03:15:48.070Z,22.20
2018-08-12T03:18:19.853Z,21.80
2018-08-12T03:20:51.697Z,22.20
2018-08-12T03:23:23.614Z,23.20
2018-08-12T03:25:55.284Z,22.80
2018-08-12T03:28:27.102Z,22.20
2018-08-12T03:30:59.025Z,23.00
2018-08-12T03:33:30.610Z,21.40
2018-08-12T03:36:03.320Z,21.40
2018-08-12T03:38:35.118Z,15.60
2018-08-12T03:41:07.436Z,19.40
2018-08-12T03:43:39.560Z,20.20
2018-08-12T03:46:12.645Z,21.00
2018-08-12T03:48:45.567Z,21.20
2018-08-12T03:51:17.429Z,22.20
2018-08-12T03:53:49.233Z,22.20
2018-08-12T03:56:21.241Z,21.80
2018-08-12T03:58:53.005Z,20.80
2018-08-12T04:01:24.868Z,21.20
2018-08-12T04:03:56.753Z,22.00
2018-08-12T04:06:28.637Z,21.60
2018-08-12T04:09:00.482Z,22.60
2018-08-12T04:11:32.239Z,20.60
2018-08-12T04:14:04.595Z,22.80
2018-08-12T04:16:36.676Z,22.80
2018-08-12T04:19:08.340Z,20.80
2018-08-12T04:21:40.193Z,21.60
2018-08-12T04:24:12.044Z,20.60
2018-08-12T04:26:43.607Z,22.80
2018-08-12T04:29:15.436Z,20.00
2018-08-12T04:31:47.068Z,19.00
2018-08-12T04:34:18.880Z,22.40
2018-08-12T04:36:51.308Z,20.60
2018-08-12T04:39:22.826Z,20.80
2018-08-12T04:41:54.771Z,19.60
2018-08-12T04:44:26.708Z,16.60
2018-08-12T04:46:59.099Z,17.20
2018-08-12T04:49:31.815Z,16.60
2018-08-12T04:52:03.785Z,20.20
2018-08-12T04:54:38.770Z,18.60
2018-08-12T04:57:12.492Z,20.00
2018-08-12T04:59:49.534Z,17.60
2018-08-12T05:02:21.369Z,18.80
2018-08-12T05:04:56.352Z,19.60
2018-08-12T05:07:28.225Z,18.00
2018-08-12T05:10:03.693Z,19.20
2018-08-12T05:12:36.153Z,17.60
2018-08-12T05:15:09.862Z,20.60
2018-08-12T05:17:42.158Z,19.20
2018-08-12T05:20:15.029Z,19.40
2018-08-12T05:22:46.776Z,19.20
2018-08-12T05:25:19.335Z,19.20
2018-08-12T05:27:58.173Z,17.20
2018-08-12T05:30:32.072Z,19.00
2018-08-12T05:33:08.374Z,17.20
2018-08-12T05:35:40.915Z,19.00
2018-08-12T05:38:13.834Z,20.00
2018-08-12T05:40:46.371Z,19.20
2018-08-12T05:43:20.453Z,19.00
2018-08-12T05:45:52.463Z,19.20
2018-08-12T05:48:24.665Z,17.40
2018-08-12T05:50:56.491Z,12.00
2018-08-12T05:53:28.566Z,16.00
2018-08-12T05:56:01.334Z,18.60
2018-08-12T05:58:33.305Z,19.00
2018-08-12T06:01:05.019Z,16.20
2018-08-12T06:03:37.162Z,10.80
2018-08-12T06:06:08.974Z,13.80
2018-08-12T06:08:40.793Z,18.40
2018-08-12T06:11:12.204Z,20.60
2018-08-12T06:13:44.451Z,18.80
2018-08-12T06:16:16.089Z,17.40
2018-08-12T06:18:48.057Z,15.20
2018-08-12T06:21:19.915Z,18.60
2018-08-12T06:23:51.787Z,18.80
2018-08-12T06:26:23.917Z,19.00
2018-08-12T06:28:55.694Z,20.20
2018-08-12T06:31:27.527Z,18.80
2018-08-12T06:33:59.506Z,18.20
2018-08-12T06:36:31.290Z,17.40
2018-08-12T06:39:03.144Z,19.40
2018-08-12T06:41:36.372Z,18.00
2018-08-12T06:44:08.281Z,20.40
2018-08-12T06:46:39.905Z,17.60
2018-08-12T06:49:11.754Z,19.60
2018-08-12T06:51:43.482Z,17.40
2018-08-12T06:54:15.108Z,16.20
2018-08-12T06:56:46.810Z,18.00
2018-08-12T06:59:18.452Z,20.00
2018-08-12T07:01:50.177Z,18.40
2018-08-12T07:04:22.026Z,17.20
2018-08-12T07:06:54.111Z,20.00
2018-08-12T07:09:26.136Z,20.20
2018-08-12T07:11:59.260Z,17.60
2018-08-12T07:14:31.296Z,18.00
2018-08-12T07:17:03.054Z,18.20
2018-08-12T07:19:35.022Z,17.60
2018-08-12T07:22:07.093Z,18.40
2018-08-12T07:24:38.875Z,17.40
2018-08-12T07:27:10.708Z,18.80
2018-08-12T07:29:42.521Z,18.60
2018-08-12T07:32:14.340Z,15.60
2018-08-12T07:34:46.289Z,18.60
2018-08-12T07:37:18.381Z,20.80
2018-08-12T07:39:50.371Z,18.20
2018-08-12T07:42:22.555Z,19.80
2018-08-12T07:44:54.513Z,20.40
2018-08-12T07:47:26.406Z,17.20
2018-08-12T07:49:57.906Z,14.60
2018-08-12T07:52:29.524Z,18.60
2018-08-12T07:55:01.428Z,19.20
2018-08-12T07:57:33.722Z,18.60
2018-08-12T08:00:05.872Z,17.40
2018-08-12T08:02:37.961Z,19.60
2018-08-12T08:05:09.862Z,16.40
2018-08-12T08:07:41.835Z,15.40
2018-08-12T08:10:15.838Z,18.00
2018-08-12T08:12:47.653Z,19.20
2018-08-12T08:15:22.708Z,17.00
2018-08-12T08:17:54.530Z,18.60
2018-08-12T08:20:26.313Z,16.40
2018-08-12T08:22:58.325Z,16.60
2018-08-12T08:25:30.428Z,16.80
2018-08-12T08:28:02.209Z,19.20
2018-08-12T08:30:33.861Z,17.20
2018-08-12T08:33:05.463Z,15.80
2018-08-12T08:35:37.855Z,18.60
2018-08-12T08:38:09.792Z,20.40
2018-08-12T08:40:42.137Z,20.20
2018-08-12T08:43:15.278Z,17.80
2018-08-12T08:45:47.203Z,20.20
2018-08-12T08:48:19.011Z,20.60
2018-08-12T08:50:51.333Z,20.80
2018-08-12T08:53:23.226Z,16.20
2018-08-12T08:55:55.192Z,20.20
2018-08-12T08:58:26.968Z,20.60
2018-08-12T09:00:58.933Z,19.00
2018-08-12T09:03:31.396Z,21.00
2018-08-12T09:06:05.057Z,21.00
2018-08-12T09:08:37.226Z,21.00
2018-08-12T09:11:09.595Z,20.80
2018-08-12T09:13:41.464Z,20.80
2018-08-12T09:16:13.250Z,21.80
2018-08-12T09:18:45.018Z,23.20
2018-08-12T09:21:16.895Z,22.20
2018-08-12T09:23:48.924Z,21.00
2018-08-12T09:26:21.798Z,22.60
2018-08-12T09:28:53.709Z,23.00
2018-08-12T09:31:25.799Z,23.60
2018-08-12T09:33:57.778Z,21.60
2018-08-12T09:36:30.074Z,23.00
2018-08-12T09:39:02.141Z,12.00
2018-08-12T09:41:33.968Z,20.00
2018-08-12T09:44:06.667Z,25.40
2018-08-12T09:46:38.389Z,23.80
2018-08-12T09:49:11.111Z,25.80
2018-08-12T09:51:43.063Z,26.60
2018-08-12T09:54:14.854Z,26.40
2018-08-12T09:56:46.950Z,25.00
2018-08-12T09:59:19.042Z,27.60
2018-08-12T10:01:50.801Z,25.00
2018-08-12T10:04:22.591Z,25.00
2018-08-12T10:06:54.550Z,24.80
2018-08-12T10:09:26.300Z,25.00
2018-08-12T10:11:58.039Z,25.20
2018-08-12T10:14:30.544Z,24.00
2018-08-12T10:17:02.988Z,26.00
2018-08-12T10:19:35.311Z,23.60
2018-08-12T10:22:08.346Z,24.40
2018-08-12T10:24:42.424Z,24.00
2018-08-12T10:27:16.097Z,24.20
2018-08-12T10:29:49.419Z,25.20
2018-08-12T10:32:22.296Z,23.00
2018-08-12T10:34:55.628Z,24.00
2018-08-12T10:37:28.826Z,23.60
2018-08-12T10:40:01.598Z,22.60
2018-08-12T10:42:34.145Z,23.00
2018-08-12T10:45:08.610Z,24.20
2018-08-12T10:47:42.499Z,23.40
2018-08-12T10:50:18.942Z,23.00
2018-08-12T10:52:52.308Z,24.00
2018-08-12T10:55:26.077Z,25.00
2018-08-12T10:57:59.415Z,24.40
2018-08-12T11:00:34.591Z,22.60
2018-08-12T11:03:08.542Z,23.00
2018-08-12T11:05:42.395Z,23.00
2018-08-12T11:08:16.145Z,22.40
2018-08-12T11:10:49.142Z,23.00
2018-08-12T11:13:21.523Z,24.00
2018-08-12T11:15:54.567Z,23.60
2018-08-12T11:18:27.741Z,20.20
2018-08-12T11:21:00.167Z,21.20
2018-08-12T11:23:33.012Z,23.40
2018-08-12T11:26:06.200Z,21.20
2018-08-12T11:28:39.345Z,22.00
2018-08-12T11:31:12.702Z,18.00
2018-08-12T11:33:45.393Z,21.60
2018-08-12T11:36:17.229Z,22.00
2018-08-12T11:38:49.177Z,20.20
2018-08-12T11:41:20.950Z,17.80
2018-08-12T11:43:53.004Z,17.60
2018-08-12T11:46:24.850Z,19.80
2018-08-12T11:48:56.627Z,16.40
2018-08-12T11:51:28.130Z,17.80
2018-08-12T11:53:59.905Z,17.20
2018-08-12T11:56:31.731Z,17.20
2018-08-12T11:59:03.543Z,17.00
2018-08-12T12:01:35.152Z,18.20
2018-08-12T12:04:06.998Z,17.40
2018-08-12T12:06:39.719Z,15.20
2018-08-12T12:09:12.309Z,18.40
2018-08-12T12:11:44.303Z,18.60
2018-08-12T12:14:16.203Z,16.80
2018-08-12T12:16:47.834Z,16.20
2018-08-12T12:19:19.730Z,16.80
2018-08-12T12:21:51.553Z,18.20
2018-08-12T12:24:23.346Z,16.00
2018-08-12T12:26:55.102Z,18.40
2018-08-12T12:29:26.962Z,17.40
2018-08-12T12:31:58.498Z,16.40
2018-08-12T12:34:30.188Z,15.40
2018-08-12T12:37:01.866Z,19.40
2018-08-12T12:39:33.461Z,14.40
2018-08-12T12:42:05.407Z,16.40
2018-08-12T12:44:37.315Z,15.80
2018-08-12T12:47:09.085Z,17.20
2018-08-12T12:49:41.023Z,18.80
2018-08-12T12:52:12.811Z,17.40
2018-08-12T12:54:45.588Z,18.60
2018-08-12T12:57:17.361Z,16.60
2018-08-12T12:59:49.211Z,16.80
2018-08-12T13:02:20.951Z,17.20
2018-08-12T13:04:52.694Z,18.20
2018-08-12T13:07:25.144Z,18.00
2018-08-12T13:09:56.900Z,18.80
2018-08-12T13:12:28.579Z,15.60
2018-08-12T13:15:00.278Z,15.60
2018-08-12T13:17:31.791Z,16.40
2018-08-12T13:20:03.653Z,14.40
2018-08-12T13:22:35.259Z,16.20
2018-08-12T13:25:08.572Z,17.00
2018-08-12T13:27:40.353Z,16.40
2018-08-12T13:30:12.906Z,16.20
2018-08-12T13:32:45.690Z,15.40
2018-08-12T13:35:17.564Z,15.80
2018-08-12T13:37:49.141Z,16.00
2018-08-12T13:40:21.232Z,14.00
2018-08-12T13:42:53.173Z,16.40
2018-08-12T13:45:25.894Z,14.40
2018-08-12T13:47:57.878Z,15.40
2018-08-12T13:50:29.831Z,12.60
2018-08-12T13:53:01.624Z,15.80
2018-08-12T13:55:33.560Z,16.40
2018-08-12T13:58:05.406Z,17.60
2018-08-12T14:00:36.801Z,16.80
2018-08-12T14:03:08.681Z,17.40
2018-08-12T14:05:40.446Z,17.40
2018-08-12T14:08:12.696Z,20.20
2018-08-12T14:10:44.519Z,22.60
2018-08-12T14:13:16.094Z,20.20
2018-08-12T14:15:47.780Z,21.00
2018-08-12T14:18:19.730Z,22.20
2018-08-12T14:20:51.653Z,24.00
2018-08-12T14:23:23.474Z,24.60
2018-08-12T14:25:55.319Z,25.80
2018-08-12T14:28:26.924Z,24.60
2018-08-12T14:30:58.620Z,26.40
2018-08-12T14:33:30.118Z,27.40
2018-08-12T14:36:01.879Z,27.00
2018-08-12T14:38:33.663Z,28.60
2018-08-12T14:41:05.485Z,28.20
2018-08-12T14:43:37.076Z,30.60
2018-08-12T14:46:09.137Z,30.60
2018-08-12T14:48:40.840Z,31.20
2018-08-12T14:51:12.740Z,30.00
2018-08-12T14:53:44.501Z,31.00
2018-08-12T14:56:16.228Z,30.00
2018-08-12T14:58:47.895Z,29.80
2018-08-12T15:01:19.718Z,29.80
2018-08-12T15:03:51.098Z,31.40
2018-08-12T15:06:22.875Z,29.80
2018-08-12T15:08:56.272Z,31.60
2018-08-12T15:11:27.888Z,29.60
2018-08-12T15:13:59.675Z,28.80
2018-08-12T15:16:31.426Z,29.60
2018-08-12T15:19:03.324Z,31.60
2018-08-12T15:21:35.591Z,29.40
2018-08-12T15:24:07.821Z,28.20
2018-08-12T15:26:39.361Z,27.40
2018-08-12T15:29:11.050Z,29.00
2018-08-12T15:31:42.860Z,28.60
2018-08-12T15:34:14.518Z,27.00
2018-08-12T15:36:46.330Z,25.40
2018-08-12T15:39:18.005Z,24.60
2018-08-12T15:41:49.631Z,25.40
2018-08-12T15:44:21.423Z,25.00
2018-08-12T15:46:52.973Z,26.80
2018-08-12T15:49:24.613Z,26.00
2018-08-12T15:51:56.433Z,25.60
2018-08-12T15:54:27.963Z,26.60
2018-08-12T15:56:59.743Z,26.00
2018-08-12T15:59:31.573Z,24.80
2018-08-12T16:02:03.322Z,26.40
2018-08-12T16:04:35.107Z,25.80
2018-08-12T16:07:09.895Z,26.60
2018-08-12T16:09:41.642Z,27.60
2018-08-12T16:12:13.417Z,25.20
2018-08-12T16:14:45.813Z,26.40
2018-08-12T16:17:17.353Z,26.60
2018-08-12T16:19:49.124Z,25.60
2018-08-12T16:22:20.814Z,25.00
2018-08-12T16:24:52.636Z,24.00
2018-08-12T16:27:24.608Z,26.60
2018-08-12T16:29:56.970Z,19.80
2018-08-12T16:32:28.842Z,23.60
2018-08-12T16:35:00.906Z,24.00
2018-08-12T16:37:32.757Z,26.60
2018-08-12T16:40:04.717Z,24.60
2018-08-12T16:42:36.642Z,24.40
2018-08-12T16:45:09.152Z,24.20
2018-08-12T16:47:41.120Z,24.40
2018-08-12T16:50:12.945Z,24.80
2018-08-12T16:52:45.291Z,23.60
2018-08-12T16:55:18.574Z,24.20
2018-08-12T16:57:50.043Z,23.00
2018-08-12T17:00:24.058Z,24.60
2018-08-12T17:02:56.090Z,23.40
2018-08-12T17:05:27.745Z,23.00
2018-08-12T17:07:59.458Z,23.40
2018-08-12T17:10:32.511Z,23.80
2018-08-12T17:13:04.644Z,24.60
2018-08-12T17:15:36.677Z,25.00
2018-08-12T17:18:08.705Z,24.60
2018-08-12T17:20:40.984Z,24.00
2018-08-12T17:23:12.901Z,23.00
2018-08-12T17:25:44.644Z,24.40
2018-08-12T17:28:16.303Z,23.00
2018-08-12T17:30:48.010Z,23.00
2018-08-12T17:33:19.866Z,22.60
2018-08-12T17:35:51.564Z,23.00
2018-08-12T17:38:23.376Z,23.80
2018-08-12T17:40:55.078Z,22.60
2018-08-12T17:43:27.080Z,23.00
2018-08-12T17:45:58.761Z,22.60
2018-08-12T17:48:30.651Z,21.00
2018-08-12T17:51:02.129Z,23.00
2018-08-12T17:53:33.860Z,21.80
2018-08-12T17:56:05.359Z,21.40
2018-08-12T17:58:37.290Z,23.00
2018-08-12T18:01:08.909Z,22.60
2018-08-12T18:03:40.772Z,22.20
2018-08-12T18:06:12.573Z,24.80
2018-08-12T18:08:44.283Z,21.40
2018-08-12T18:11:15.919Z,21.40
2018-08-12T18:13:48.756Z,20.40
2018-08-12T18:16:20.671Z,21.40
2018-08-12T18:18:52.636Z,22.20
2018-08-12T18:21:24.623Z,21.80
2018-08-12T18:23:56.277Z,22.20
2018-08-12T18:26:27.860Z,20.80
2018-08-12T18:28:59.582Z,21.20
2018-08-12T18:31:31.261Z,21.00
2018-08-12T18:34:03.217Z,19.60
2018-08-12T18:36:34.999Z,20.20
2018-08-12T18:39:08.632Z,21.00
2018-08-12T18:41:40.267Z,21.00
2018-08-12T18:44:12.602Z,20.60
2018-08-12T18:46:44.249Z,21.00
2018-08-12T18:49:16.117Z,18.60
2018-08-12T18:51:47.671Z,17.60
2018-08-12T18:54:19.609Z,19.00
2018-08-12T18:56:51.465Z,20.60
2018-08-12T18:59:23.273Z,21.00
2018-08-12T19:01:54.931Z,21.40
2018-08-12T19:04:26.983Z,21.00
2018-08-12T19:06:58.576Z,18.20
2018-08-12T19:09:30.122Z,20.20
2018-08-12T19:12:01.893Z,20.40
2018-08-12T19:14:33.643Z,19.40
2018-08-12T19:17:06.337Z,20.20
2018-08-12T19:19:38.128Z,20.60
2018-08-12T19:22:09.885Z,20.20
2018-08-12T19:24:41.657Z,21.00
2018-08-12T19:27:13.324Z,23.00
2018-08-12T19:29:44.861Z,20.20
2018-08-12T19:32:16.448Z,20.60
2018-08-12T19:34:48.450Z,20.40
2018-08-12T19:37:22.128Z,20.60
2018-08-12T19:39:54.042Z,20.60
2018-08-12T19:42:25.718Z,20.80
2018-08-12T19:44:58.784Z,19.40
2018-08-12T19:47:30.465Z,18.60
2018-08-12T19:50:02.374Z,20.20
2018-08-12T19:52:34.228Z,18.80
2018-08-12T19:55:06.701Z,20.80
2018-08-12T19:57:39.423Z,19.60
2018-08-12T20:00:15.663Z,18.40
2018-08-12T20:02:47.364Z,21.00
2018-08-12T20:05:19.250Z,21.40
2018-08-12T20:07:51.151Z,19.60
2018-08-12T20:10:22.943Z,18.40
2018-08-12T20:12:54.929Z,20.60
2018-08-12T20:15:26.689Z,20.60
2018-08-12T20:17:58.407Z,19.60
2018-08-12T20:20:30.202Z,20.80
2018-08-12T20:23:01.886Z,20.60
2018-08-12T20:25:33.683Z,20.20
2018-08-12T20:28:05.792Z,19.00
2018-08-12T20:30:37.541Z,20.60
2018-08-12T20:33:09.367Z,20.40
2018-08-12T20:35:41.117Z,18.20
2018-08-12T20:38:12.831Z,20.40
2018-08-12T20:40:44.920Z,19.20
2018-08-12T20:43:16.512Z,18.60
2018-08-12T20:45:49.211Z,16.20
2018-08-12T20:48:20.906Z,20.20
2018-08-12T20:50:52.963Z,18.20
2018-08-12T20:53:24.608Z,17.20
2018-08-12T20:55:56.457Z,16.00
2018-08-12T20:58:28.148Z,16.20
2018-08-12T21:00:59.715Z,18.40
2018-08-12T21:03:31.704Z,18.40
2018-08-12T21:06:03.338Z,16.60
2018-08-12T21:08:35.109Z,19.20
2018-08-12T21:11:07.373Z,18.80
2018-08-12T21:13:39.096Z,15.80
2018-08-12T21:16:11.137Z,18.80
2018-08-12T21:18:42.573Z,16.40
2018-08-12T21:21:14.413Z,19.00
2018-08-12T21:23:45.975Z,18.60
2018-08-12T21:26:17.720Z,17.80
2018-08-12T21:28:49.194Z,18.00
2018-08-12T21:31:21.209Z,16.80
2018-08-12T21:33:52.940Z,17.40
2018-08-12T21:36:25.629Z,15.80
2018-08-12T21:38:57.071Z,16.80
2018-08-12T21:41:28.927Z,17.60
2018-08-12T21:44:00.433Z,18.00
2018-08-12T21:46:32.204Z,18.40
2018-08-12T21:49:03.646Z,19.20
2018-08-12T21:51:36.275Z,18.00
2018-08-12T21:54:08.043Z,18.00
2018-08-12T21:56:39.911Z,19.60
2018-08-12T21:59:12.555Z,19.00
2018-08-12T22:01:44.830Z,19.60
2018-08-12T22:04:16.543Z,17.60
2018-08-12T22:06:48.303Z,18.00
2018-08-12T22:09:20.204Z,19.60
2018-08-12T22:11:52.768Z,17.20
2018-08-12T22:14:24.287Z,18.60
2018-08-12T22:16:56.176Z,18.80
2018-08-12T22:19:27.595Z,20.60
2018-08-12T22:21:59.436Z,19.20
2018-08-12T22:24:31.097Z,19.20
2018-08-12T22:27:03.012Z,18.60
2018-08-12T22:29:34.656Z,19.80
2018-08-12T22:32:06.773Z,17.40
2018-08-12T22:34:38.599Z,17.20
2018-08-12T22:37:10.682Z,18.00
2018-08-12T22:39:42.188Z,14.80
2018-08-12T22:42:13.964Z,16.80
2018-08-12T22:44:45.666Z,18.60
2018-08-12T22:47:17.502Z,18.00
2018-08-12T22:49:49.005Z,16.00
2018-08-12T22:52:20.766Z,16.20
2018-08-12T22:54:52.441Z,15.40
2018-08-12T22:57:24.371Z,17.20
2018-08-12T22:59:56.171Z,17.80
2018-08-12T23:02:28.227Z,16.60
2018-08-12T23:04:59.932Z,17.80
2018-08-12T23:07:31.740Z,18.20
2018-08-12T23:10:03.473Z,18.20
2018-08-12T23:12:36.472Z,17.00
2018-08-12T23:15:17.284Z,16.80
2018-08-12T23:17:48.867Z,19.80
2018-08-12T23:20:20.819Z,19.80
2018-08-12T23:22:53.005Z,19.60
2018-08-12T23:25:24.733Z,18.40
2018-08-12T23:27:57.740Z,20.40
2018-08-12T23:30:29.731Z,18.40
2018-08-12T23:33:01.593Z,16.60
2018-08-12T23:35:34.460Z,18.40
2018-08-12T23:38:06.520Z,18.40
2018-08-12T23:40:38.042Z,18.40
2018-08-12T23:43:09.881Z,19.00
2018-08-12T23:45:41.512Z,19.80
2018-08-12T23:48:13.631Z,18.00
2018-08-12T23:50:45.716Z,19.00
2018-08-12T23:53:17.413Z,17.80
2018-08-12T23:55:49.286Z,18.80
2018-08-12T23:58:21.055Z,20.00
